Página principal
METAR-TAF:

METAR-TAF

Aeroportos :

Sófia, Bulgária

Aeroporto de Sófia

latitude: 42-39N, longitude: 023-23E, altura: 586 m

Observação actual do tempo

O boletim foi feito há 18 minutos, às 23:30 UTC
Vento calmo
Temperatura 17°C
Humidade 77%
Pressão 1019 hPa
Visibilidade 10 km ou mais
sem nuvens abaixo de 1500 metros e sem cumulonimbus

METAR: LBSF 182330Z 00000KT CAVOK 17/13 Q1019 NOSIG

Hora: 02:48 (23:48 UTC)

Previsão

O boletim foi feito há 48 minutos, às 23:00 UTC
Previsão válida de 19 às 00 UTC a 19 às 24 UTC
Vento 4 kt com direcção variável
Visibilidade 10 km ou mais
sem nuvens abaixo de 1500 metros e sem cumulonimbus
Tornando-se
de 19 às 11 UTC a 19 às 13 UTC
Vento 8 kt de es-nordeste

TAF: LBSF 182300Z 1900/1924 VRB04KT CAVOK BECMG 1911/1913 06008KT

Observações e previsões do tempo de mais de 4000 aeroportos (mensagens METAR e TAF).

As estações disponíveis são os pontos amarelos e vermelhos sobre o mapa.

Mova o rato sobre o mapa para ver o nome da estação.

Depois clique no ponto para visualizar as observações e previsões meteorológicas.

Para alterar o mapa : clique nos botões verdes com uma cruz preta para aumentar o zoom; no botão verde com uma pitada de zoom; ou nas setas verdes para mapas adjacentes.


METAR-TAF: